Hastings Natural History Reservation, California Weather observations

Data are for 10 minute period ending at time listed.
 Day   Time   Solar   Ave.   Ave.  Ave.  Vector  Max.   Baro.   Total    
  of    of     Rad.   Air    Rel.  Wind   Wind   Wind  Press.  Precip.   
Year   Day            Temp.  Hum.  Speed  Dir.   Gust                    
2014   (PST)  Kw/m2    F      %     mph   deg.    mph    mb.     in.     
-------------------------------------------------------------------------
 303   22:50   0.00   52.8    65    0.8    44     2.0   949.9    0.00 
 303   23:00   0.00   52.9    77    1.6   222     4.2   950.1    0.00 
 303   23:10   0.00   52.8    89    0.7   199     2.8   950.0    0.00 
 303   23:20   0.00   52.2    92    1.0   217     2.7   949.9    0.00 
 303   23:30   0.00   50.9    90    0.8    28     2.0   950.0    0.00 
 303   23:40   0.00   50.5    90    1.0   101     2.9   949.8    0.00 
 303   23:50   0.00   49.9    90    1.4   213     2.6   949.7    0.00 
 304    0:00   0.00   50.1    92    1.1    60     2.6   949.8    0.00 
 304    0:10   0.00   49.9    92    1.0   214     4.5   949.8    0.00 
 304    0:20   0.00   50.9    96    1.9   243     4.3   950.0    0.00 
 304    0:30   0.00   51.2    98    0.9   164     4.5   950.2    0.00 
 304    0:40   0.00   51.8    98    0.5   201     1.5   950.4    0.00 
 304    0:50   0.00   52.3    98    0.4   237     1.8   950.3    0.00 
 304    1:00   0.00   52.4    98    0.1   116     0.9   950.2    0.00 
 304    1:10   0.00   52.3    97    0.6    66     2.6   950.2    0.00 
 304    1:20   0.00   52.4    97    1.2    68     3.5   950.1    0.00 
 304    1:30   0.00   52.4    96    1.1    83     3.8   949.9    0.00 
 304    1:40   0.00   52.1    96    1.1   262     2.5   950.2    0.00 
 304    1:50   0.00   51.7    96    0.3    84     1.3   950.4    0.00 
 304    2:00   0.00   51.3    96    0.4   198     1.5   950.4    0.00 
 304    2:10   0.00   50.7    96    1.0    49     2.7   950.1    0.00 
 304    2:20   0.00   50.4    96    0.4    43     1.7   949.9    0.00 
 304    2:30   0.00   50.0    96    0.6   244     2.6   949.8    0.00 
 304    2:40   0.00   49.8    96    0.8    77     1.7   949.8    0.00 
 304    2:50   0.00   49.5    96    1.2    53     2.4   949.9    0.00 
 304    3:00   0.00   49.1    96    1.6    47     2.9   949.8    0.00 
 304    3:10   0.00   49.3    96    0.2    60     1.2   949.7    0.00 
 304    3:20   0.00   49.4    95    0.8    59     2.3   949.7    0.00 
 304    3:30   0.00   49.2    95    0.7    61     2.1   949.6    0.00 
 304    3:40   0.00   49.1    95    0.1   233     0.8   949.4    0.00 
 304    3:50   0.00   48.8    95    0.7   212     2.0   949.4    0.00 
 304    4:00   0.00   49.4    96    1.1   205     3.1   949.6    0.00 
 304    4:10   0.00   49.5    96    0.6    93     1.8   949.6    0.00 
 304    4:20   0.00   49.4    96    0.4    83     2.0   949.4    0.00 
 304    4:30   0.00   49.0    96    0.3    62     1.2   949.4    0.00 
 304    4:40   0.00   48.6    95    0.1    78     1.0   949.5    0.00 
 304    4:50   0.00   48.3    95    0.0     0     0.0   949.5    0.00 
 304    5:00   0.00   48.0    95    0.6    56     1.7   949.4    0.00 
 304    5:10   0.00   47.7    96    1.0    52     1.7   949.3    0.00 
 304    5:20   0.00   47.6    96    0.7    57     1.8   949.2    0.00 
 304    5:30   0.00   47.6    96    0.1    20     1.0   949.1    0.00 
 304    5:40   0.00   47.3    96    0.8    75     2.6   949.0    0.00 
 304    5:50   0.00   47.9    98    1.5    74     3.1   948.9    0.00 
 304    6:00   0.00   49.2    98    1.7    72     3.7   948.9    0.00 
 304    6:10   0.00   49.4    97    1.4    72     2.5   948.9    0.00 
 304    6:20   0.00   49.7    97    1.8    58     3.6   949.0    0.00 
 304    6:30   0.00   50.3    97    2.0    51     4.3   948.9    0.00 
 304    6:40   0.00   50.7    96    1.7    44     4.0   948.9    0.00 
 304    6:50   0.00   51.0    96    2.0    40     4.9   948.9    0.00 
 304    7:00   0.00   50.9    96    1.3    58     2.8   949.2    0.00 
 304    7:10   0.00   50.5    97    4.0    63     7.1   949.0    0.00 
 304    7:20   0.00   51.0    95    1.9    42     6.2   948.8    0.00 
 304    7:30   0.00   50.6    94    0.8   269     2.1   949.1    0.00 
 304    7:40   0.00   49.7    95    1.4    54     2.5   949.4    0.00 
 304    7:50   0.00   48.0    94    2.6    56     4.2   949.6    0.00 
 304    8:00   0.00   47.8    96    2.9    61     4.8   949.6    0.00 
 304    8:10   0.01   49.6    96    2.5    74     5.4   949.6    0.00 
 304    8:20   0.01   49.1    95    1.8    73     4.4   949.6    0.00 
 304    8:30   0.01   48.7    95    0.5   113     1.9   949.6    0.00 
 304    8:40   0.01   49.2    95    0.5    69     1.8   949.7    0.00 
 304    8:50   0.01   49.2    95    1.0    74     2.4   949.8    0.00 
 304    9:00   0.01   49.3    96    2.0    62     3.3   949.8    0.00 
 304    9:10   0.01   50.2    97    2.1    55     3.2   949.8    0.00 
 304    9:20   0.03   51.1    96    1.6    74     2.8   949.8    0.00 
 304    9:30   0.03   51.9    96    1.6    64     2.7   949.7    0.00 
 304    9:40   0.04   53.4    92    0.5   350     1.9   949.7    0.00 
 304    9:50   0.06   55.2    81    1.1    29     2.6   949.7    0.00 
 304   10:00   0.07   57.3    73    1.0   298     3.1   949.6    0.00 
 304   10:10   0.07   59.7    66    2.9   252     6.4   949.6    0.00 
 304   10:20   0.08   60.7    63    1.5    72     4.2   949.5    0.00 
 304   10:30   0.14   61.6    61    1.6   256     6.0   949.3    0.00 
 304   10:40   0.11   62.5    59    1.5   267     5.3   949.0    0.00 
 304   10:50   0.11   62.5    59    1.6    45     4.2   948.9    0.00 
 304   11:00   0.15   63.2    57    0.4    40     2.3   948.7    0.00 
 304   11:10   0.19   64.0    56    2.4    62     6.4   948.4    0.00 
 304   11:20   0.12   64.3    55    1.8    42     5.8   948.0    0.00 
 304   11:30   0.18   65.2    53    1.6    27     5.7   947.8    0.00 
 304   11:40   0.21   65.9    52    1.5   359     4.2   947.9    0.00 
 304   11:50   0.22   66.0    52    2.0   250     4.3   947.9    0.00 
 304   12:00   0.21   66.0    52    1.3    63     4.5   947.7    0.00 
 304   12:10   0.15   65.8    51    1.4     4     3.9   947.6    0.00 
 304   12:20   0.07   65.4    51    1.8   292     6.2   947.6    0.00 
 304   12:30   0.05   64.3    54    3.1   257    10.1   947.6    0.00 
 304   12:40   0.05   63.5    56    2.4   261    10.4   947.6    0.00 
 304   12:50   0.04   62.6    60    3.3   274     8.8   947.7    0.00 
 304   13:00   0.05   61.0    68    1.7     8     8.3   947.8    0.00 
 304   13:10   0.07   58.9    79    2.4    35     5.9   947.6    0.00 
 304   13:20   0.11   57.1    87    4.0    62     8.2   947.3    0.02 
 304   13:30   0.09   56.8    90    3.8    60     7.2   947.1    0.00 
 304   13:40   0.10   57.1    89    2.0    57     6.5   946.9    0.00 
 304   13:50   0.09   57.5    88    1.1    89     2.9   946.7    0.00 
 304   14:00   0.09   57.8    88    1.4    42     3.3   946.6    0.00 
 304   14:10   0.12   57.9    89    1.8   235     4.0   946.3    0.01 
 304   14:20   0.09   57.7    90    2.5   238     4.4   946.3    0.01 
 304   14:30   0.08   57.7    91    1.0   232     2.6   946.4    0.00 
 304   14:40   0.06   57.9    91    0.5    34     1.1   946.3    0.00 
 304   14:50   0.04   57.7    91    1.4    56     3.2   946.2    0.02 
 304   15:00   0.05   56.6    90    2.1    78     3.7   946.1    0.02 
 304   15:10   0.04   55.8    92    0.9    59     2.2   946.2    0.01 
 304   15:20   0.01   55.4    94    0.4    47     2.3   946.3    0.03 
 304   15:30   0.01   54.9    94    1.1   255     2.8   946.4    0.03 
 304   15:40   0.01   54.1    94    0.7   226     2.0   946.4    0.04 
 304   15:50   0.00   53.5    95    0.7   218     2.2   946.5    0.04 
 304   16:00   0.00   53.4    96    0.1   206     0.9   946.6    0.04 
 304   16:10   0.01   53.3    97    1.7   289     6.3   946.5    0.05 
 304   16:20   0.01   52.8    98    1.3   238     3.1   946.4    0.04 
 304   16:30   0.00   52.9    98    1.5   214     3.7   946.4    0.03 
 304   16:40   0.00   52.7    99    1.9   238     5.8   946.8    0.03 
 304   16:50   0.00   52.8   100    1.6    88     3.2   946.8    0.03 
 304   17:00   0.00   52.7   100    1.0    98     2.6   946.5    0.02 
 304   17:10   0.00   52.0    99    3.1    78     5.3   946.1    0.02 
 304   17:20   0.00   51.1    98    2.5    90     4.2   945.8    0.02 
 304   17:30   0.00   50.4    98    2.2    72     3.6   945.7    0.00 
 304   17:40   0.00   50.1    98    1.7    96     3.4   945.9    0.01 
 304   17:50   0.00   50.2    98    2.2    68     4.5   945.9    0.00 
 304   18:00   0.00   50.3    97    1.7    71     3.5   945.5    0.01 
 304   18:10   0.00   50.2    97    1.9    78     4.1   945.4    0.01 
 304   18:20   0.00   49.9    96    1.8    55     4.7   945.6    0.02 
 304   18:30   0.00   49.7    96    0.9    84     2.1   945.6    0.01 
 304   18:40   0.00   49.6    97    0.8    69     2.6   945.4    0.02 
 304   18:50   0.00   49.6    98    0.4   162     2.0   945.5    0.03 
 304   19:00   0.00   49.6    98    0.2    51     1.8   945.5    0.01 
 304   19:10   0.00   49.6    98    0.3    89     1.8   945.5    0.03 
 304   19:20   0.00   49.6    99    0.3   264     1.2   945.3    0.02 
 304   19:30   0.00   49.6    99    0.3   344     2.4   944.8    0.03 
 304   19:40   0.00   49.5    99    1.1   238     2.4   944.5    0.02 
 304   19:50   0.00   49.5   100    1.3   238     3.4   944.2    0.01 
 304   20:00   0.00   49.4   100    0.7   218     2.8   943.9    0.01 
 304   20:10   0.00   49.2   100    0.4    34     2.1   944.1    0.01 
 304   20:20   0.00   49.2   100    1.2   257     3.2   944.6    0.00 
 304   20:30   0.00   49.2   100    1.1    48     2.6   945.2    0.00 
 304   20:40   0.00   49.1   100    1.9    82     3.9   945.2    0.00 
 304   20:50   0.00   49.1   100    1.2    90     4.4   945.2    0.00 
 304   21:00   0.00   49.2   100    0.2    92     1.2   945.5    0.00 
 304   21:10   0.00   49.3   100    0.4    51     1.3   945.7    0.00 
 304   21:20   0.00   49.4   100    0.0   161     0.5   945.5    0.00 
 304   21:30   0.00   49.5   100    1.3   253     4.2   945.3    0.01 
 304   21:40   0.00   49.2   100    1.9   264     5.7   945.1    0.00 
 304   21:50   0.00   49.0   100    0.8   260     3.3   945.3    0.00 
 304   22:00   0.00   48.9    99    0.6    16     2.0   945.4    0.00 
 304   22:10   0.00   48.6    99    0.7    43     1.8   945.6    0.01 
 304   22:20   0.00   48.3    99    1.5    65     2.6   945.3    0.00 
 304   22:30   0.00   48.1    99    0.6    73     1.8   945.0    0.00 
 304   22:40   0.00   48.1    99    0.0     0     0.0   945.3    0.00 

Return to Hastings Natural History Reservation graphs page.


Western Regional Climate Center,wrcc@dri.edu